sensor_id;sensor_type;location;lat;lon;timestamp;temperature;humidity
60033;DHT22;45905;50.570;10.428;2023-08-06T00:02:18;15.60;99.90
60033;DHT22;45905;50.570;10.428;2023-08-06T00:05:01;15.10;99.90
60033;DHT22;45905;50.570;10.428;2023-08-06T00:12:23;15.40;99.90
60033;DHT22;45905;50.570;10.428;2023-08-06T00:14:51;15.20;99.90
60033;DHT22;45905;50.570;10.428;2023-08-06T00:17:19;14.90;99.90
60033;DHT22;45905;50.570;10.428;2023-08-06T00:19:46;14.70;99.90
60033;DHT22;45905;50.570;10.428;2023-08-06T00:24:41;15.10;99.90
60033;DHT22;45905;50.570;10.428;2023-08-06T00:27:08;15.10;99.90
60033;DHT22;45905;50.570;10.428;2023-08-06T00:34:40;15.00;99.90
60033;DHT22;45905;50.570;10.428;2023-08-06T00:37:08;15.20;99.90
60033;DHT22;45905;50.570;10.428;2023-08-06T00:39:35;15.10;99.90
60033;DHT22;45905;50.570;10.428;2023-08-06T00:42:02;15.00;99.90
60033;DHT22;45905;50.570;10.428;2023-08-06T00:44:37;15.00;99.90
60033;DHT22;45905;50.570;10.428;2023-08-06T00:47:05;15.00;99.90
60033;DHT22;45905;50.570;10.428;2023-08-06T00:49:35;15.40;99.90
60033;DHT22;45905;50.570;10.428;2023-08-06T00:52:07;15.00;99.90
60033;DHT22;45905;50.570;10.428;2023-08-06T00:54:45;15.00;99.90
60033;DHT22;45905;50.570;10.428;2023-08-06T00:57:12;15.30;99.90
60033;DHT22;45905;50.570;10.428;2023-08-06T01:02:08;15.30;99.90
60033;DHT22;45905;50.570;10.428;2023-08-06T01:04:39;14.90;99.90
60033;DHT22;45905;50.570;10.428;2023-08-06T01:08:02;15.10;99.90
60033;DHT22;45905;50.570;10.428;2023-08-06T01:10:51;14.80;99.90
60033;DHT22;45905;50.570;10.428;2023-08-06T01:13:46;15.00;99.90
60033;DHT22;45905;50.570;10.428;2023-08-06T01:16:20;14.80;99.90
60033;DHT22;45905;50.570;10.428;2023-08-06T01:21:17;14.60;99.90
60033;DHT22;45905;50.570;10.428;2023-08-06T01:23:46;14.80;99.90
60033;DHT22;45905;50.570;10.428;2023-08-06T01:26:26;14.80;99.90
60033;DHT22;45905;50.570;10.428;2023-08-06T01:29:22;15.10;99.90
60033;DHT22;45905;50.570;10.428;2023-08-06T01:31:51;14.80;99.90
60033;DHT22;45905;50.570;10.428;2023-08-06T01:34:48;15.10;99.90
60033;DHT22;45905;50.570;10.428;2023-08-06T01:37:17;14.80;99.90
60033;DHT22;45905;50.570;10.428;2023-08-06T01:39:44;14.80;99.90
60033;DHT22;45905;50.570;10.428;2023-08-06T01:44:42;14.80;99.90
60033;DHT22;45905;50.570;10.428;2023-08-06T01:52:05;14.80;99.90
60033;DHT22;45905;50.570;10.428;2023-08-06T01:54:36;14.70;99.90
60033;DHT22;45905;50.570;10.428;2023-08-06T01:57:04;14.90;99.90
60033;DHT22;45905;50.570;10.428;2023-08-06T01:59:31;14.80;99.90
60033;DHT22;45905;50.570;10.428;2023-08-06T02:04:45;15.30;99.90
60033;DHT22;45905;50.570;10.428;2023-08-06T02:12:08;14.80;99.90
60033;DHT22;45905;50.570;10.428;2023-08-06T02:14:54;15.30;99.90
60033;DHT22;45905;50.570;10.428;2023-08-06T02:22:16;14.60;99.90
60033;DHT22;45905;50.570;10.428;2023-08-06T02:24:50;14.90;99.90
60033;DHT22;45905;50.570;10.428;2023-08-06T02:27:17;14.90;99.90
60033;DHT22;45905;50.570;10.428;2023-08-06T02:37:07;15.10;99.90
60033;DHT22;45905;50.570;10.428;2023-08-06T02:39:46;14.80;99.90
60033;DHT22;45905;50.570;10.428;2023-08-06T02:42:14;14.80;99.90
60033;DHT22;45905;50.570;10.428;2023-08-06T02:44:41;14.60;99.90
60033;DHT22;45905;50.570;10.428;2023-08-06T02:52:05;14.80;99.90
60033;DHT22;45905;50.570;10.428;2023-08-06T02:54:33;14.80;99.90
60033;DHT22;45905;50.570;10.428;2023-08-06T02:57:00;14.80;99.90
60033;DHT22;45905;50.570;10.428;2023-08-06T02:59:31;14.80;99.90
60033;DHT22;45905;50.570;10.428;2023-08-06T03:02:24;14.80;99.90
60033;DHT22;45905;50.570;10.428;2023-08-06T03:05:11;14.80;99.90
60033;DHT22;45905;50.570;10.428;2023-08-06T03:07:43;14.80;99.90
60033;DHT22;45905;50.570;10.428;2023-08-06T03:10:16;14.50;99.90
60033;DHT22;45905;50.570;10.428;2023-08-06T03:12:44;14.80;99.90
60033;DHT22;45905;50.570;10.428;2023-08-06T03:15:11;14.80;99.90
60033;DHT22;45905;50.570;10.428;2023-08-06T03:17:41;14.50;99.90
60033;DHT22;45905;50.570;10.428;2023-08-06T03:20:10;14.70;99.90
60033;DHT22;45905;50.570;10.428;2023-08-06T03:27:35;14.70;99.90
60033;DHT22;45905;50.570;10.428;2023-08-06T03:32:31;14.60;99.90
60033;DHT22;45905;50.570;10.428;2023-08-06T03:34:59;14.90;99.90
60033;DHT22;45905;50.570;10.428;2023-08-06T03:37:28;14.70;99.90
60033;DHT22;45905;50.570;10.428;2023-08-06T03:39:56;14.60;99.90
60033;DHT22;45905;50.570;10.428;2023-08-06T03:42:23;14.70;99.90
60033;DHT22;45905;50.570;10.428;2023-08-06T03:44:50;14.70;99.90
60033;DHT22;45905;50.570;10.428;2023-08-06T03:50:04;14.90;99.90
60033;DHT22;45905;50.570;10.428;2023-08-06T03:52:32;14.70;99.90
60033;DHT22;45905;50.570;10.428;2023-08-06T03:55:00;14.40;99.90
60033;DHT22;45905;50.570;10.428;2023-08-06T03:59:55;14.60;99.90
60033;DHT22;45905;50.570;10.428;2023-08-06T04:02:25;14.60;99.90
60033;DHT22;45905;50.570;10.428;2023-08-06T04:04:52;14.90;99.90
60033;DHT22;45905;50.570;10.428;2023-08-06T04:10:07;14.50;99.90
60033;DHT22;45905;50.570;10.428;2023-08-06T04:12:34;15.00;99.90
60033;DHT22;45905;50.570;10.428;2023-08-06T04:15:05;14.50;99.90
60033;DHT22;45905;50.570;10.428;2023-08-06T04:17:33;14.80;99.90
60033;DHT22;45905;50.570;10.428;2023-08-06T04:22:29;14.20;99.90
60033;DHT22;45905;50.570;10.428;2023-08-06T04:24:56;14.30;99.90
60033;DHT22;45905;50.570;10.428;2023-08-06T04:32:19;14.20;99.90
60033;DHT22;45905;50.570;10.428;2023-08-06T04:34:50;14.10;99.90
60033;DHT22;45905;50.570;10.428;2023-08-06T04:39:45;14.50;99.90
60033;DHT22;45905;50.570;10.428;2023-08-06T04:42:13;14.30;99.90
60033;DHT22;45905;50.570;10.428;2023-08-06T04:47:07;14.40;99.90
60033;DHT22;45905;50.570;10.428;2023-08-06T04:49:34;14.40;99.90
60033;DHT22;45905;50.570;10.428;2023-08-06T04:56:57;14.30;99.90
60033;DHT22;45905;50.570;10.428;2023-08-06T04:59:24;14.30;99.90
60033;DHT22;45905;50.570;10.428;2023-08-06T05:01:51;14.30;99.90
60033;DHT22;45905;50.570;10.428;2023-08-06T05:04:19;14.10;99.90
60033;DHT22;45905;50.570;10.428;2023-08-06T05:06:46;14.60;99.90
60033;DHT22;45905;50.570;10.428;2023-08-06T05:11:42;14.30;99.90
60033;DHT22;45905;50.570;10.428;2023-08-06T05:16:36;14.30;99.90
60033;DHT22;45905;50.570;10.428;2023-08-06T05:19:03;11.40;99.90
60033;DHT22;45905;50.570;10.428;2023-08-06T05:21:31;14.40;99.90
60033;DHT22;45905;50.570;10.428;2023-08-06T05:23:58;14.30;99.90
60033;DHT22;45905;50.570;10.428;2023-08-06T05:28:52;14.60;99.90
60033;DHT22;45905;50.570;10.428;2023-08-06T05:31:20;14.80;99.90
60033;DHT22;45905;50.570;10.428;2023-08-06T05:33:47;15.50;99.90
60033;DHT22;45905;50.570;10.428;2023-08-06T05:36:14;13.70;99.90
60033;DHT22;45905;50.570;10.428;2023-08-06T05:38:41;15.20;99.90
60033;DHT22;45905;50.570;10.428;2023-08-06T05:41:08;14.90;99.90
60033;DHT22;45905;50.570;10.428;2023-08-06T05:43:36;15.00;99.90
60033;DHT22;45905;50.570;10.428;2023-08-06T05:48:31;15.10;99.90
60033;DHT22;45905;50.570;10.428;2023-08-06T05:50:58;14.80;99.90
60033;DHT22;45905;50.570;10.428;2023-08-06T05:53:26;15.20;99.90
60033;DHT22;45905;50.570;10.428;2023-08-06T05:55:53;15.60;99.90
60033;DHT22;45905;50.570;10.428;2023-08-06T06:05:43;15.10;99.90
60033;DHT22;45905;50.570;10.428;2023-08-06T06:10:37;15.70;99.90
60033;DHT22;45905;50.570;10.428;2023-08-06T06:15:35;15.60;99.90
60033;DHT22;45905;50.570;10.428;2023-08-06T06:20:32;15.60;99.90
60033;DHT22;45905;50.570;10.428;2023-08-06T06:25:27;15.70;99.90
60033;DHT22;45905;50.570;10.428;2023-08-06T06:27:54;16.60;99.90
60033;DHT22;45905;50.570;10.428;2023-08-06T06:30:22;15.70;99.90
60033;DHT22;45905;50.570;10.428;2023-08-06T06:32:49;15.60;99.90
60033;DHT22;45905;50.570;10.428;2023-08-06T06:35:16;15.40;99.90
60033;DHT22;45905;50.570;10.428;2023-08-06T06:45:08;15.80;99.90
60033;DHT22;45905;50.570;10.428;2023-08-06T06:52:31;15.90;99.90
60033;DHT22;45905;50.570;10.428;2023-08-06T06:54:59;16.40;99.90
60033;DHT22;45905;50.570;10.428;2023-08-06T06:57:26;16.30;99.90
60033;DHT22;45905;50.570;10.428;2023-08-06T06:59:53;16.10;99.90
60033;DHT22;45905;50.570;10.428;2023-08-06T07:04:50;16.20;99.90
60033;DHT22;45905;50.570;10.428;2023-08-06T07:07:17;16.60;99.90
60033;DHT22;45905;50.570;10.428;2023-08-06T07:09:45;16.20;99.90
60033;DHT22;45905;50.570;10.428;2023-08-06T07:14:40;16.20;99.90
60033;DHT22;45905;50.570;10.428;2023-08-06T07:19:34;16.40;99.90
60033;DHT22;45905;50.570;10.428;2023-08-06T07:26:57;16.30;99.90
60033;DHT22;45905;50.570;10.428;2023-08-06T07:34:20;16.20;99.90
60033;DHT22;45905;50.570;10.428;2023-08-06T07:49:09;16.40;99.90
60033;DHT22;45905;50.570;10.428;2023-08-06T07:54:06;16.60;99.90
60033;DHT22;45905;50.570;10.428;2023-08-06T07:56:33;16.30;99.90
60033;DHT22;45905;50.570;10.428;2023-08-06T08:01:28;16.70;99.90
60033;DHT22;45905;50.570;10.428;2023-08-06T08:08:50;16.70;99.90
60033;DHT22;45905;50.570;10.428;2023-08-06T08:18:43;17.30;99.90
60033;DHT22;45905;50.570;10.428;2023-08-06T08:31:01;17.00;99.90
60033;DHT22;45905;50.570;10.428;2023-08-06T08:33:28;17.10;99.90
60033;DHT22;45905;50.570;10.428;2023-08-06T08:35:55;17.20;99.90
60033;DHT22;45905;50.570;10.428;2023-08-06T08:38:22;17.20;99.90
60033;DHT22;45905;50.570;10.428;2023-08-06T08:40:52;17.30;99.90
60033;DHT22;45905;50.570;10.428;2023-08-06T08:43:21;17.30;99.90
60033;DHT22;45905;50.570;10.428;2023-08-06T08:45:55;17.60;99.90
60033;DHT22;45905;50.570;10.428;2023-08-06T08:48:26;17.50;99.90
60033;DHT22;45905;50.570;10.428;2023-08-06T08:50:55;17.50;99.90
60033;DHT22;45905;50.570;10.428;2023-08-06T08:53:23;17.70;99.90
60033;DHT22;45905;50.570;10.428;2023-08-06T08:55:51;17.70;99.90
60033;DHT22;45905;50.570;10.428;2023-08-06T08:58:19;17.70;99.90
60033;DHT22;45905;50.570;10.428;2023-08-06T09:03:18;18.30;99.90
60033;DHT22;45905;50.570;10.428;2023-08-06T09:05:48;17.30;99.90
60033;DHT22;45905;50.570;10.428;2023-08-06T09:08:23;17.80;99.90
60033;DHT22;45905;50.570;10.428;2023-08-06T09:10:54;18.10;99.90
60033;DHT22;45905;50.570;10.428;2023-08-06T09:18:25;17.60;99.90
60033;DHT22;45905;50.570;10.428;2023-08-06T09:23:30;17.70;99.90
60033;DHT22;45905;50.570;10.428;2023-08-06T09:26:00;17.80;99.90
60033;DHT22;45905;50.570;10.428;2023-08-06T09:28:37;18.60;99.90
60033;DHT22;45905;50.570;10.428;2023-08-06T09:36:11;21.10;99.90
60033;DHT22;45905;50.570;10.428;2023-08-06T09:38:40;17.50;99.90
60033;DHT22;45905;50.570;10.428;2023-08-06T09:43:42;17.80;99.90
60033;DHT22;45905;50.570;10.428;2023-08-06T09:46:14;17.80;99.90
60033;DHT22;45905;50.570;10.428;2023-08-06T09:48:46;17.80;99.90
60033;DHT22;45905;50.570;10.428;2023-08-06T09:53:42;17.80;99.90
60033;DHT22;45905;50.570;10.428;2023-08-06T09:56:10;17.80;99.90
60033;DHT22;45905;50.570;10.428;2023-08-06T09:58:41;17.90;99.90
60033;DHT22;45905;50.570;10.428;2023-08-06T10:03:38;17.50;99.90
60033;DHT22;45905;50.570;10.428;2023-08-06T10:06:07;17.80;99.90
60033;DHT22;45905;50.570;10.428;2023-08-06T10:11:03;17.70;99.90
60033;DHT22;45905;50.570;10.428;2023-08-06T10:13:33;17.50;99.90
60033;DHT22;45905;50.570;10.428;2023-08-06T10:16:02;18.00;99.90
60033;DHT22;45905;50.570;10.428;2023-08-06T10:18:33;18.10;99.90
60033;DHT22;45905;50.570;10.428;2023-08-06T10:21:08;18.10;99.90
60033;DHT22;45905;50.570;10.428;2023-08-06T10:23:36;18.40;99.90
60033;DHT22;45905;50.570;10.428;2023-08-06T10:26:07;18.10;99.90
60033;DHT22;45905;50.570;10.428;2023-08-06T10:28:39;18.10;99.90
60033;DHT22;45905;50.570;10.428;2023-08-06T10:33:45;18.00;99.90
60033;DHT22;45905;50.570;10.428;2023-08-06T10:36:14;18.10;99.90
60033;DHT22;45905;50.570;10.428;2023-08-06T10:38:47;18.50;99.90
60033;DHT22;45905;50.570;10.428;2023-08-06T10:41:29;18.10;99.90
60033;DHT22;45905;50.570;10.428;2023-08-06T10:44:10;17.70;99.90
60033;DHT22;45905;50.570;10.428;2023-08-06T10:46:38;17.70;99.90
60033;DHT22;45905;50.570;10.428;2023-08-06T10:51:34;17.30;99.90
60033;DHT22;45905;50.570;10.428;2023-08-06T10:54:02;17.40;99.90
60033;DHT22;45905;50.570;10.428;2023-08-06T10:56:31;17.60;99.90
60033;DHT22;45905;50.570;10.428;2023-08-06T11:01:37;17.80;99.90
60033;DHT22;45905;50.570;10.428;2023-08-06T11:06:33;17.50;99.90
60033;DHT22;45905;50.570;10.428;2023-08-06T11:09:01;17.50;99.90
60033;DHT22;45905;50.570;10.428;2023-08-06T11:13:57;17.00;99.90
60033;DHT22;45905;50.570;10.428;2023-08-06T11:18:54;17.50;99.90
60033;DHT22;45905;50.570;10.428;2023-08-06T11:23:52;17.50;99.90
60033;DHT22;45905;50.570;10.428;2023-08-06T11:26:21;17.60;99.90
60033;DHT22;45905;50.570;10.428;2023-08-06T11:31:21;17.70;99.90
60033;DHT22;45905;50.570;10.428;2023-08-06T11:33:51;17.80;99.90
60033;DHT22;45905;50.570;10.428;2023-08-06T11:36:29;17.80;99.90
60033;DHT22;45905;50.570;10.428;2023-08-06T11:39:01;17.80;99.90
60033;DHT22;45905;50.570;10.428;2023-08-06T11:41:30;17.80;99.90
60033;DHT22;45905;50.570;10.428;2023-08-06T11:43:58;17.60;99.90
60033;DHT22;45905;50.570;10.428;2023-08-06T11:48:55;18.10;99.90
60033;DHT22;45905;50.570;10.428;2023-08-06T11:51:27;16.90;99.90
60033;DHT22;45905;50.570;10.428;2023-08-06T11:53:56;18.20;99.90
60033;DHT22;45905;50.570;10.428;2023-08-06T11:56:26;18.20;99.90
60033;DHT22;45905;50.570;10.428;2023-08-06T11:58:55;18.30;99.90
60033;DHT22;45905;50.570;10.428;2023-08-06T12:01:22;18.30;99.90
60033;DHT22;45905;50.570;10.428;2023-08-06T12:06:17;19.00;99.90
60033;DHT22;45905;50.570;10.428;2023-08-06T12:13:39;18.90;99.90
60033;DHT22;45905;50.570;10.428;2023-08-06T12:16:07;18.70;99.90
60033;DHT22;45905;50.570;10.428;2023-08-06T12:18:34;18.60;99.90
60033;DHT22;45905;50.570;10.428;2023-08-06T12:25:58;19.20;99.90
60033;DHT22;45905;50.570;10.428;2023-08-06T12:43:12;18.60;99.90
60033;DHT22;45905;50.570;10.428;2023-08-06T12:48:07;17.70;99.90
60033;DHT22;45905;50.570;10.428;2023-08-06T12:50:36;18.50;99.90
60033;DHT22;45905;50.570;10.428;2023-08-06T13:27:34;18.70;99.90
60033;DHT22;45905;50.570;10.428;2023-08-06T13:32:30;18.80;99.90
60033;DHT22;45905;50.570;10.428;2023-08-06T13:37:27;19.20;99.90
60033;DHT22;45905;50.570;10.428;2023-08-06T13:39:54;19.50;99.90
60033;DHT22;45905;50.570;10.428;2023-08-06T13:42:22;18.50;99.90
60033;DHT22;45905;50.570;10.428;2023-08-06T13:52:12;19.30;99.90
60033;DHT22;45905;50.570;10.428;2023-08-06T13:59:46;18.70;99.90
60033;DHT22;45905;50.570;10.428;2023-08-06T14:04:41;18.60;99.90
60033;DHT22;45905;50.570;10.428;2023-08-06T14:07:09;18.80;99.90
60033;DHT22;45905;50.570;10.428;2023-08-06T14:12:04;18.70;99.90
60033;DHT22;45905;50.570;10.428;2023-08-06T14:21:56;18.20;99.90
60033;DHT22;45905;50.570;10.428;2023-08-06T14:34:14;17.60;99.90
60033;DHT22;45905;50.570;10.428;2023-08-06T14:51:29;17.40;99.90
60033;DHT22;45905;50.570;10.428;2023-08-06T14:58:51;18.30;99.90
60033;DHT22;45905;50.570;10.428;2023-08-06T15:11:13;19.40;99.90
60033;DHT22;45905;50.570;10.428;2023-08-06T15:13:41;18.60;99.90
60033;DHT22;45905;50.570;10.428;2023-08-06T15:16:08;18.60;99.90
60033;DHT22;45905;50.570;10.428;2023-08-06T15:25:59;17.30;99.90
60033;DHT22;45905;50.570;10.428;2023-08-06T15:30:54;17.40;99.90
60033;DHT22;45905;50.570;10.428;2023-08-06T15:33:22;17.50;99.90
60033;DHT22;45905;50.570;10.428;2023-08-06T15:40:44;17.40;99.90
60033;DHT22;45905;50.570;10.428;2023-08-06T15:43:12;16.90;99.90
60033;DHT22;45905;50.570;10.428;2023-08-06T15:45:39;16.60;99.90
60033;DHT22;45905;50.570;10.428;2023-08-06T15:50:39;16.80;99.90
60033;DHT22;45905;50.570;10.428;2023-08-06T15:53:09;16.70;99.90
60033;DHT22;45905;50.570;10.428;2023-08-06T15:58:05;16.20;99.90
60033;DHT22;45905;50.570;10.428;2023-08-06T16:00:32;16.80;99.90
60033;DHT22;45905;50.570;10.428;2023-08-06T16:07:58;16.50;99.90
60033;DHT22;45905;50.570;10.428;2023-08-06T16:12:53;16.30;99.90
60033;DHT22;45905;50.570;10.428;2023-08-06T16:17:48;16.70;99.90
60033;DHT22;45905;50.570;10.428;2023-08-06T16:25:12;15.60;99.90
60033;DHT22;45905;50.570;10.428;2023-08-06T16:27:40;15.80;99.90
60033;DHT22;45905;50.570;10.428;2023-08-06T16:32:36;15.80;99.90
60033;DHT22;45905;50.570;10.428;2023-08-06T16:37:33;15.80;99.90
60033;DHT22;45905;50.570;10.428;2023-08-06T16:54:49;15.40;99.90
60033;DHT22;45905;50.570;10.428;2023-08-06T16:59:44;15.40;99.90
60033;DHT22;45905;50.570;10.428;2023-08-06T17:02:12;15.20;99.90
60033;DHT22;45905;50.570;10.428;2023-08-06T17:04:39;15.10;99.90
60033;DHT22;45905;50.570;10.428;2023-08-06T17:12:02;15.30;99.90
60033;DHT22;45905;50.570;10.428;2023-08-06T17:24:20;15.20;99.90
60033;DHT22;45905;50.570;10.428;2023-08-06T17:26:48;15.10;99.90
60033;DHT22;45905;50.570;10.428;2023-08-06T17:31:44;15.60;99.90
60033;DHT22;45905;50.570;10.428;2023-08-06T17:39:06;14.90;99.90
60033;DHT22;45905;50.570;10.428;2023-08-06T17:41:33;11.80;99.90
60033;DHT22;45905;50.570;10.428;2023-08-06T17:46:29;15.30;99.90
60033;DHT22;45905;50.570;10.428;2023-08-06T17:51:25;14.80;99.90
60033;DHT22;45905;50.570;10.428;2023-08-06T17:56:20;14.30;99.90
60033;DHT22;45905;50.570;10.428;2023-08-06T18:03:43;14.60;99.90
60033;DHT22;45905;50.570;10.428;2023-08-06T18:11:08;14.90;99.90
60033;DHT22;45905;50.570;10.428;2023-08-06T18:13:35;14.60;99.90
60033;DHT22;45905;50.570;10.428;2023-08-06T18:16:03;15.10;99.90
60033;DHT22;45905;50.570;10.428;2023-08-06T18:18:30;14.40;99.90
60033;DHT22;45905;50.570;10.428;2023-08-06T18:20:58;14.50;99.90
60033;DHT22;45905;50.570;10.428;2023-08-06T18:23:25;14.50;99.90
60033;DHT22;45905;50.570;10.428;2023-08-06T18:25:52;14.90;99.90
60033;DHT22;45905;50.570;10.428;2023-08-06T18:28:23;14.10;99.90
60033;DHT22;45905;50.570;10.428;2023-08-06T18:30:53;14.80;99.90
60033;DHT22;45905;50.570;10.428;2023-08-06T18:33:21;14.70;99.90
60033;DHT22;45905;50.570;10.428;2023-08-06T18:38:16;14.30;99.90
60033;DHT22;45905;50.570;10.428;2023-08-06T18:40:43;14.10;99.90
60033;DHT22;45905;50.570;10.428;2023-08-06T18:45:38;14.70;99.90
60033;DHT22;45905;50.570;10.428;2023-08-06T18:48:06;14.30;99.90
60033;DHT22;45905;50.570;10.428;2023-08-06T18:50:33;14.30;99.90
60033;DHT22;45905;50.570;10.428;2023-08-06T18:53:03;14.10;99.90
60033;DHT22;45905;50.570;10.428;2023-08-06T18:55:31;14.50;99.90
60033;DHT22;45905;50.570;10.428;2023-08-06T18:57:59;14.20;99.90
60033;DHT22;45905;50.570;10.428;2023-08-06T19:00:27;14.40;99.90
60033;DHT22;45905;50.570;10.428;2023-08-06T19:02:55;14.40;99.90
60033;DHT22;45905;50.570;10.428;2023-08-06T19:05:22;14.60;99.90
60033;DHT22;45905;50.570;10.428;2023-08-06T19:07:52;14.40;99.90
60033;DHT22;45905;50.570;10.428;2023-08-06T19:12:49;14.20;99.90
60033;DHT22;45905;50.570;10.428;2023-08-06T19:15:17;14.30;99.90
60033;DHT22;45905;50.570;10.428;2023-08-06T19:20:12;14.40;99.90
60033;DHT22;45905;50.570;10.428;2023-08-06T19:22:39;14.10;99.90
60033;DHT22;45905;50.570;10.428;2023-08-06T19:30:02;13.90;99.90
60033;DHT22;45905;50.570;10.428;2023-08-06T19:32:30;14.10;99.90
60033;DHT22;45905;50.570;10.428;2023-08-06T19:34:58;14.00;99.90
60033;DHT22;45905;50.570;10.428;2023-08-06T19:37:25;14.00;99.90
60033;DHT22;45905;50.570;10.428;2023-08-06T19:39:52;14.00;99.90
60033;DHT22;45905;50.570;10.428;2023-08-06T19:44:47;14.00;99.90
60033;DHT22;45905;50.570;10.428;2023-08-06T19:47:15;14.00;99.90
60033;DHT22;45905;50.570;10.428;2023-08-06T19:49:43;14.00;99.90
60033;DHT22;45905;50.570;10.428;2023-08-06T19:54:37;14.00;99.90
60033;DHT22;45905;50.570;10.428;2023-08-06T19:57:05;13.70;99.90
60033;DHT22;45905;50.570;10.428;2023-08-06T19:59:33;9.60;99.90
60033;DHT22;45905;50.570;10.428;2023-08-06T20:02:00;14.10;99.90
60033;DHT22;45905;50.570;10.428;2023-08-06T20:04:27;14.00;99.90
60033;DHT22;45905;50.570;10.428;2023-08-06T20:06:55;13.30;99.90
60033;DHT22;45905;50.570;10.428;2023-08-06T20:09:22;13.90;99.90
60033;DHT22;45905;50.570;10.428;2023-08-06T20:14:17;13.90;99.90
60033;DHT22;45905;50.570;10.428;2023-08-06T20:16:44;14.00;99.90
60033;DHT22;45905;50.570;10.428;2023-08-06T20:19:12;14.30;99.90
60033;DHT22;45905;50.570;10.428;2023-08-06T20:21:40;14.00;99.90
60033;DHT22;45905;50.570;10.428;2023-08-06T20:24:07;13.80;99.90
60033;DHT22;45905;50.570;10.428;2023-08-06T20:26:34;13.70;99.90
60033;DHT22;45905;50.570;10.428;2023-08-06T20:29:01;13.50;99.90
60033;DHT22;45905;50.570;10.428;2023-08-06T20:31:29;13.80;99.90
60033;DHT22;45905;50.570;10.428;2023-08-06T20:33:56;13.70;99.90
60033;DHT22;45905;50.570;10.428;2023-08-06T20:36:24;13.80;99.90
60033;DHT22;45905;50.570;10.428;2023-08-06T20:38:51;13.30;99.90
60033;DHT22;45905;50.570;10.428;2023-08-06T20:41:18;13.80;99.90
60033;DHT22;45905;50.570;10.428;2023-08-06T20:43:45;13.80;99.90
60033;DHT22;45905;50.570;10.428;2023-08-06T20:46:12;13.60;99.90
60033;DHT22;45905;50.570;10.428;2023-08-06T20:48:40;13.70;99.90
60033;DHT22;45905;50.570;10.428;2023-08-06T20:51:07;13.60;99.90
60033;DHT22;45905;50.570;10.428;2023-08-06T20:53:35;13.60;99.90
60033;DHT22;45905;50.570;10.428;2023-08-06T20:56:04;13.50;99.90
60033;DHT22;45905;50.570;10.428;2023-08-06T20:58:32;13.60;99.90
60033;DHT22;45905;50.570;10.428;2023-08-06T21:01:00;13.70;99.90
60033;DHT22;45905;50.570;10.428;2023-08-06T21:03:28;13.40;99.90
60033;DHT22;45905;50.570;10.428;2023-08-06T21:06:00;13.70;99.90
60033;DHT22;45905;50.570;10.428;2023-08-06T21:08:30;13.60;99.90
60033;DHT22;45905;50.570;10.428;2023-08-06T21:10:59;13.60;99.90
60033;DHT22;45905;50.570;10.428;2023-08-06T21:13:28;13.80;99.90
60033;DHT22;45905;50.570;10.428;2023-08-06T21:15:58;13.60;99.90
60033;DHT22;45905;50.570;10.428;2023-08-06T21:18:31;13.50;99.90
60033;DHT22;45905;50.570;10.428;2023-08-06T21:21:01;13.70;99.90
60033;DHT22;45905;50.570;10.428;2023-08-06T21:23:29;13.50;99.90
60033;DHT22;45905;50.570;10.428;2023-08-06T21:25:59;13.60;99.90
60033;DHT22;45905;50.570;10.428;2023-08-06T21:28:27;13.30;99.90
60033;DHT22;45905;50.570;10.428;2023-08-06T21:30:57;14.20;99.90
60033;DHT22;45905;50.570;10.428;2023-08-06T21:33:34;13.50;99.90
60033;DHT22;45905;50.570;10.428;2023-08-06T21:36:03;13.70;99.90
60033;DHT22;45905;50.570;10.428;2023-08-06T21:38:36;13.60;99.90
60033;DHT22;45905;50.570;10.428;2023-08-06T21:41:12;13.50;99.90
60033;DHT22;45905;50.570;10.428;2023-08-06T21:43:45;13.60;99.90
60033;DHT22;45905;50.570;10.428;2023-08-06T21:46:16;13.80;99.90
60033;DHT22;45905;50.570;10.428;2023-08-06T21:48:46;13.50;99.90
60033;DHT22;45905;50.570;10.428;2023-08-06T21:51:16;13.70;99.90
60033;DHT22;45905;50.570;10.428;2023-08-06T21:53:45;13.40;99.90
60033;DHT22;45905;50.570;10.428;2023-08-06T21:56:13;13.90;99.90
60033;DHT22;45905;50.570;10.428;2023-08-06T21:58:47;13.60;99.90
60033;DHT22;45905;50.570;10.428;2023-08-06T22:01:16;13.80;99.90
60033;DHT22;45905;50.570;10.428;2023-08-06T22:03:44;13.60;99.90
60033;DHT22;45905;50.570;10.428;2023-08-06T22:06:12;13.60;99.90
60033;DHT22;45905;50.570;10.428;2023-08-06T22:08:40;13.40;99.90
60033;DHT22;45905;50.570;10.428;2023-08-06T22:11:09;13.60;99.90
60033;DHT22;45905;50.570;10.428;2023-08-06T22:13:36;13.40;99.90
60033;DHT22;45905;50.570;10.428;2023-08-06T22:16:07;13.60;99.90
60033;DHT22;45905;50.570;10.428;2023-08-06T22:18:35;13.60;99.90
60033;DHT22;45905;50.570;10.428;2023-08-06T22:21:03;13.70;99.90
60033;DHT22;45905;50.570;10.428;2023-08-06T22:23:30;13.60;99.90
60033;DHT22;45905;50.570;10.428;2023-08-06T22:28:26;13.60;99.90
60033;DHT22;45905;50.570;10.428;2023-08-06T22:30:54;13.50;99.90
60033;DHT22;45905;50.570;10.428;2023-08-06T22:33:21;13.50;99.90
60033;DHT22;45905;50.570;10.428;2023-08-06T22:35:49;13.40;99.90
60033;DHT22;45905;50.570;10.428;2023-08-06T22:38:17;14.50;99.90
60033;DHT22;45905;50.570;10.428;2023-08-06T22:40:45;13.70;99.90
60033;DHT22;45905;50.570;10.428;2023-08-06T22:43:12;13.50;99.90
60033;DHT22;45905;50.570;10.428;2023-08-06T22:45:39;11.60;99.90
60033;DHT22;45905;50.570;10.428;2023-08-06T22:48:06;13.70;99.90
60033;DHT22;45905;50.570;10.428;2023-08-06T22:50:34;13.60;99.90
60033;DHT22;45905;50.570;10.428;2023-08-06T22:53:01;13.60;99.90
60033;DHT22;45905;50.570;10.428;2023-08-06T22:55:34;13.70;99.90
60033;DHT22;45905;50.570;10.428;2023-08-06T22:58:04;13.50;99.90
60033;DHT22;45905;50.570;10.428;2023-08-06T23:00:32;13.70;99.90
60033;DHT22;45905;50.570;10.428;2023-08-06T23:02:59;13.60;99.90
60033;DHT22;45905;50.570;10.428;2023-08-06T23:05:36;13.50;99.90
60033;DHT22;45905;50.570;10.428;2023-08-06T23:08:04;13.30;99.90
60033;DHT22;45905;50.570;10.428;2023-08-06T23:10:31;13.60;99.90
60033;DHT22;45905;50.570;10.428;2023-08-06T23:12:59;13.50;99.90
60033;DHT22;45905;50.570;10.428;2023-08-06T23:15:26;13.50;99.90
60033;DHT22;45905;50.570;10.428;2023-08-06T23:17:53;13.50;99.90
60033;DHT22;45905;50.570;10.428;2023-08-06T23:20:21;13.30;99.90
60033;DHT22;45905;50.570;10.428;2023-08-06T23:22:48;13.60;99.90
60033;DHT22;45905;50.570;10.428;2023-08-06T23:25:15;13.60;99.90
60033;DHT22;45905;50.570;10.428;2023-08-06T23:27:43;13.50;99.90